Time;durP1;ratioP1;P1;durP2;ratioP2;P2;SDS_P1;SDS_P2;PMS_P1;PMS_P2;Temp;Humidity;BMP_temperature;BMP_pressure;BME280_temperature;BME280_humidity;BME280_pressure;Samples;Min_cycle;Max_cycle;Signal;HPM_P1;HPM_P2
2021/08/12 00:00:54;;;;;;;5.47;4.60;;;19.70;67.30;;;19.64;51.78;95459.16;4999776;28;20219;-88
2021/08/12 00:03:21;;;;;;;7.07;4.68;;;19.70;67.50;;;19.60;51.76;95449.22;5016239;28;20247;-88
2021/08/12 00:05:48;;;;;;;6.65;4.38;;;19.60;67.50;;;19.60;52.04;95458.00;5019519;28;20252;-88
2021/08/12 00:08:15;;;;;;;9.50;5.20;;;19.60;67.60;;;19.62;51.82;95457.78;4999779;28;20201;-87
2021/08/12 00:10:43;;;;;;;6.68;4.93;;;19.60;67.50;;;19.61;51.84;95454.28;5016171;28;20225;-87
2021/08/12 00:13:10;;;;;;;6.45;4.97;;;19.60;67.60;;;19.62;52.35;95452.44;4999388;28;20272;-87
2021/08/12 00:15:37;;;;;;;5.95;5.18;;;19.60;67.60;;;19.62;52.43;95458.56;5015480;28;20278;-87
2021/08/12 00:18:05;;;;;;;7.40;5.13;;;19.60;67.80;;;19.62;52.31;95452.44;5015723;28;20295;-86
2021/08/12 00:20:32;;;;;;;7.75;5.10;;;19.60;67.80;;;19.66;52.43;95451.75;4999785;28;20267;-87
2021/08/12 00:22:59;;;;;;;7.22;4.93;;;19.70;67.80;;;19.66;52.38;95454.41;5015714;28;20192;-86
2021/08/12 00:25:26;;;;;;;5.97;4.70;;;19.60;67.80;;;19.69;52.48;95455.78;4989871;28;20231;-87
2021/08/12 00:27:53;;;;;;;5.63;4.63;;;19.60;67.70;;;19.68;52.48;95462.94;5015151;28;20639;-88
2021/08/12 00:30:20;;;;;;;5.80;4.57;;;19.70;67.90;;;19.69;52.63;95455.78;5015504;28;20282;-88
2021/08/12 00:32:48;;;;;;;6.88;4.95;;;19.60;67.80;;;19.71;52.54;95458.22;5015708;28;20196;-86
2021/08/12 00:35:15;;;;;;;7.38;5.18;;;19.70;67.90;;;19.72;52.66;95463.28;5015274;28;20232;-87
2021/08/12 00:37:43;;;;;;;7.72;5.00;;;19.70;68.00;;;19.72;52.24;95459.84;5012728;28;20197;-87
2021/08/12 00:40:11;;;;;;;5.10;4.60;;;19.70;68.10;;;19.72;52.39;95463.28;4999078;28;20224;-88
2021/08/12 00:42:39;;;;;;;5.90;4.60;;;19.70;68.20;;;19.72;52.70;95457.97;4998806;28;20197;-88
2021/08/12 00:45:08;;;;;;;6.25;4.70;;;19.60;68.00;;;19.73;52.85;95456.13;4999318;28;20312;-87
2021/08/12 00:47:35;;;;;;;6.72;5.30;;;19.60;67.90;;;19.68;52.54;95460.28;5016185;28;20204;-87
2021/08/12 00:50:03;;;;;;;8.32;5.05;;;19.70;67.90;;;19.67;52.30;95458.66;4999094;28;20217;-87
2021/08/12 00:52:31;;;;;;;6.25;4.70;;;19.70;68.10;;;19.64;52.76;95455.66;4999151;28;20202;-87
2021/08/12 00:55:02;;;;;;;6.43;4.97;;;19.70;68.10;;;19.54;52.85;95455.47;4982943;28;20249;-87
2021/08/12 00:57:34;;;;;;;9.07;5.20;;;19.60;68.10;;;19.53;52.97;95460.00;5014559;28;20204;-87
2021/08/12 01:00:05;;;;;;;6.82;4.82;;;19.60;68.00;;;19.49;52.89;95459.66;5014514;28;20697;-88
2021/08/12 01:02:34;;;;;;;8.43;4.88;;;19.60;68.00;;;19.45;52.60;95452.38;5014878;28;20204;-88
2021/08/12 01:05:07;;;;;;;6.68;4.97;;;19.50;68.00;;;19.44;52.78;95462.19;5014598;28;20216;-87
2021/08/12 01:07:58;;;;;;;7.70;4.95;;;19.50;68.30;;;19.38;52.86;95459.66;4999032;28;20228;-87
2021/08/12 01:10:42;;;;;;;6.75;4.90;;;19.50;69.50;;;19.28;52.82;95460.25;4998537;28;20217;-87
2021/08/12 01:14:06;;;;;;;6.53;5.07;;;19.40;68.00;;;19.23;52.98;95460.94;4998612;28;20200;-87
2021/08/12 01:16:46;;;;;;;6.22;4.63;;;19.40;68.40;;;19.17;52.85;95465.34;4995957;28;20255;-87
2021/08/12 01:19:22;;;;;;;5.95;4.93;;;19.40;68.60;;;19.10;53.26;95462.00;5014773;28;20283;-87
2021/08/12 01:22:00;;;;;;;7.43;5.47;;;19.30;68.10;;;19.09;53.13;95465.72;5014910;28;20192;-87
2021/08/12 01:24:39;;;;;;;5.78;4.78;;;19.30;68.30;;;18.99;53.28;95460.97;5014689;28;20197;-87
2021/08/12 01:27:12;;;;;;;8.32;5.50;;;19.20;68.80;;;19.01;53.38;95460.75;5030995;28;20204;-87
2021/08/12 01:29:52;;;;;;;5.55;4.60;;;19.20;68.60;;;18.95;53.50;95459.81;5047786;28;20565;-87
2021/08/12 01:32:27;;;;;;;10.43;5.30;;;19.20;68.90;;;18.96;53.72;95464.09;5014275;28;20188;-87
2021/08/12 01:35:05;;;;;;;6.63;5.03;;;19.10;69.00;;;18.95;53.94;95464.31;5014271;28;20224;-87
2021/08/12 01:37:46;;;;;;;6.85;4.85;;;19.10;69.20;;;18.94;53.71;95462.69;5033202;28;20200;-86
2021/08/12 01:40:17;;;;;;;5.70;4.50;;;19.00;69.20;;;18.93;53.78;95453.09;5017920;28;20216;-87
2021/08/12 01:42:45;;;;;;;8.43;5.50;;;19.10;69.00;;;18.92;53.90;95457.63;5034068;28;20750;-87
2021/08/12 01:45:17;;;;;;;5.28;4.60;;;19.00;68.90;;;18.92;54.12;95459.44;5031974;28;20222;-87
2021/08/12 01:47:49;;;;;;;9.05;5.40;;;19.00;69.30;;;18.87;54.02;95455.63;5033918;28;20204;-87
2021/08/12 01:50:17;;;;;;;8.52;4.93;;;19.00;69.30;;;18.83;53.94;95453.66;5033995;28;20216;-88
2021/08/12 01:52:51;;;;;;;8.35;5.28;;;19.00;69.10;;;18.79;54.52;95455.94;5033745;28;20211;-87
2021/08/12 01:55:28;;;;;;;8.38;5.05;;;18.90;69.40;;;18.75;54.00;95449.50;5029751;28;20212;-87
2021/08/12 01:57:58;;;;;;;6.50;4.93;;;18.90;69.20;;;18.75;54.27;95459.28;5014156;28;20207;-87
2021/08/12 02:00:30;;;;;;;7.43;5.15;;;18.90;69.30;;;18.77;54.06;95466.00;5014578;28;20216;-87
2021/08/12 02:03:04;;;;;;;5.72;4.82;;;19.00;69.60;;;18.81;54.64;95453.88;5015062;28;20247;-87
2021/08/12 02:05:33;;;;;;;6.95;5.13;;;18.80;69.40;;;18.85;54.51;95456.91;5013680;28;20263;-87
2021/08/12 02:08:01;;;;;;;7.43;5.28;;;18.90;69.60;;;18.88;54.64;95461.72;5006894;28;20200;-86
2021/08/12 02:10:28;;;;;;;7.57;5.45;;;18.90;69.80;;;18.93;54.87;95463.72;5033111;28;20223;-87
2021/08/12 02:12:56;;;;;;;8.20;5.20;;;18.90;70.70;;;18.87;54.84;95454.78;5033490;28;20197;-87
2021/08/12 02:15:25;;;;;;;6.30;4.85;;;18.90;69.90;;;18.90;54.46;95459.66;5017221;28;20236;-86
2021/08/12 02:17:52;;;;;;;7.47;4.82;;;18.90;70.70;;;18.86;54.60;95459.31;5029664;28;20221;-86
2021/08/12 02:20:19;;;;;;;5.78;4.40;;;18.90;69.70;;;18.88;54.91;95459.91;4997117;28;20618;-87
2021/08/12 02:23:19;;;;;;;8.40;5.20;;;18.90;69.90;;;18.84;54.39;95461.38;4997428;28;20574;-87
2021/08/12 02:25:52;;;;;;;8.00;5.53;;;18.90;70.10;;;18.80;55.07;95446.94;5013192;28;20232;-87
2021/08/12 02:28:20;;;;;;;7.13;5.50;;;19.00;69.80;;;18.83;54.98;95456.31;5029457;28;20192;-87
2021/08/12 02:30:52;;;;;;;8.27;5.25;;;18.90;69.80;;;18.83;54.62;95453.66;5049471;28;20646;-87
2021/08/12 02:33:26;;;;;;;7.10;5.28;;;19.00;70.20;;;18.83;54.97;95449.13;5000922;28;20192;-87
2021/08/12 02:35:53;;;;;;;6.30;5.03;;;18.90;70.10;;;18.83;54.70;95446.47;5021336;28;20223;-87
2021/08/12 02:38:24;;;;;;;6.20;4.97;;;18.80;70.00;;;18.82;55.06;95454.69;4996810;28;20192;-86
2021/08/12 02:40:57;;;;;;;5.30;4.50;;;18.90;70.20;;;18.80;54.91;95454.13;4997130;28;20263;-87
2021/08/12 02:43:26;;;;;;;6.75;5.18;;;18.90;70.20;;;18.80;54.87;95456.78;4997395;28;20224;-87
2021/08/12 02:46:00;;;;;;;7.15;5.20;;;18.90;70.20;;;18.73;55.19;95449.69;4988370;28;20273;-87
2021/08/12 02:48:29;;;;;;;5.97;4.53;;;18.90;70.40;;;18.72;55.09;95442.78;5032225;28;20198;-87
2021/08/12 02:51:00;;;;;;;6.10;4.78;;;18.80;70.20;;;18.68;54.71;95443.47;5000787;28;20212;-88
2021/08/12 02:53:31;;;;;;;5.95;4.75;;;18.90;70.10;;;18.65;55.30;95452.72;5016589;28;20200;-87
2021/08/12 02:56:06;;;;;;;5.95;4.47;;;18.80;70.10;;;18.58;55.03;95445.88;5013793;28;20715;-87
2021/08/12 02:58:36;;;;;;;6.88;4.88;;;18.70;70.10;;;18.54;55.30;95454.31;5013158;28;20236;-87
2021/08/12 03:01:06;;;;;;;6.30;4.90;;;18.70;70.20;;;18.54;55.02;95448.19;5002455;28;20245;-86
2021/08/12 03:03:38;;;;;;;6.35;4.53;;;18.60;70.00;;;18.48;55.02;95454.41;5000393;28;20208;-87
2021/08/12 03:06:11;;;;;;;7.68;4.22;;;18.60;70.20;;;18.48;54.91;95451.75;5011891;28;20247;-87
2021/08/12 03:08:39;;;;;;;6.55;4.75;;;18.60;70.20;;;18.45;54.96;95455.69;5013083;28;20181;-87
2021/08/12 03:11:10;;;;;;;8.20;4.90;;;18.60;70.90;;;18.41;55.07;95465.16;4996961;28;20220;-87
2021/08/12 03:13:38;;;;;;;6.82;4.65;;;18.50;70.40;;;18.37;55.33;95456.00;5012607;28;20223;-87
2021/08/12 03:16:06;;;;;;;7.82;4.78;;;18.50;70.10;;;18.29;55.27;95453.69;4996677;28;20282;-87
2021/08/12 03:18:35;;;;;;;7.25;4.72;;;18.50;70.20;;;18.28;55.18;95462.69;5032581;28;20246;-87
2021/08/12 03:21:13;;;;;;;5.70;4.68;;;18.40;70.10;;;18.22;55.41;95465.22;5034748;28;20658;-87
2021/08/12 03:23:42;;;;;;;5.00;4.43;;;18.40;70.70;;;18.18;55.24;95465.88;5038926;28;20196;-87
2021/08/12 03:26:12;;;;;;;5.95;4.78;;;18.40;70.30;;;18.14;55.48;95454.09;5027259;28;20212;-86
2021/08/12 03:28:40;;;;;;;5.63;4.53;;;18.30;70.20;;;18.08;55.64;95450.50;5019134;28;20206;-87
2021/08/12 03:31:07;;;;;;;8.50;5.10;;;18.30;70.30;;;18.06;55.86;95463.19;5002637;28;20275;-88
2021/08/12 03:33:34;;;;;;;6.53;5.00;;;18.20;70.30;;;18.00;55.66;95467.53;5002749;28;20199;-87
2021/08/12 03:36:01;;;;;;;6.47;4.90;;;18.20;70.40;;;17.96;55.84;95466.38;5005762;28;20242;-86
2021/08/12 03:38:29;;;;;;;6.78;5.18;;;18.20;70.40;;;17.91;55.80;95471.53;5002583;28;20242;-87
2021/08/12 03:40:56;;;;;;;6.90;4.40;;;18.10;70.30;;;17.85;55.74;95465.25;5002962;28;20601;-87
2021/08/12 03:43:23;;;;;;;6.00;4.85;;;18.10;70.40;;;17.81;56.02;95474.72;5002932;28;20211;-87
2021/08/12 03:45:51;;;;;;;6.20;4.82;;;18.00;70.40;;;17.79;56.01;95478.63;4997360;28;20266;-87
2021/08/12 03:48:19;;;;;;;6.50;4.80;;;18.00;71.50;;;17.68;56.13;95462.41;5028184;28;20303;-87
2021/08/12 03:50:46;;;;;;;6.25;4.63;;;18.00;70.70;;;17.71;56.30;95474.41;5024702;28;20265;-86
2021/08/12 03:53:14;;;;;;;6.53;4.75;;;17.90;70.70;;;17.68;55.93;95469.56;5036979;28;20215;-87
2021/08/12 03:55:41;;;;;;;7.47;4.97;;;17.80;70.80;;;17.63;56.13;95462.28;5033149;28;20591;-87
2021/08/12 03:58:08;;;;;;;8.00;5.22;;;17.90;71.00;;;17.63;56.40;95474.75;5028792;28;20666;-86
2021/08/12 04:00:36;;;;;;;7.28;5.20;;;17.80;70.90;;;17.60;56.37;95471.50;5019221;28;20213;-86
2021/08/12 04:03:04;;;;;;;7.95;5.18;;;17.80;71.00;;;17.59;56.45;95477.81;5018429;28;20197;-87
2021/08/12 04:05:32;;;;;;;5.70;4.78;;;17.80;71.10;;;17.58;56.91;95472.75;4999700;28;20601;-87
2021/08/12 04:08:00;;;;;;;5.57;4.75;;;17.70;71.10;;;17.56;56.64;95472.94;5020910;28;20192;-87
2021/08/12 04:10:29;;;;;;;7.50;4.63;;;17.70;71.30;;;17.55;56.42;95470.53;5037888;28;20693;-86
2021/08/12 04:12:57;;;;;;;6.50;4.88;;;17.70;71.30;;;17.59;56.85;95479.66;5019262;28;20207;-86
2021/08/12 04:15:24;;;;;;;6.50;4.75;;;17.70;71.40;;;17.58;56.54;95478.03;5036877;28;20208;-86
2021/08/12 04:17:51;;;;;;;6.80;4.38;;;17.70;71.50;;;17.62;56.81;95470.47;5021746;28;20251;-87
2021/08/12 04:20:19;;;;;;;6.65;4.90;;;17.60;71.60;;;17.64;56.95;95477.16;5017863;28;20594;-87
2021/08/12 04:22:46;;;;;;;5.93;4.65;;;17.60;71.60;;;17.67;56.84;95471.38;5004683;28;20200;-87
2021/08/12 04:25:14;;;;;;;5.60;4.82;;;17.70;71.90;;;17.72;56.89;95476.03;5006188;28;20226;-86
2021/08/12 04:27:42;;;;;;;6.47;4.72;;;17.70;71.90;;;17.75;57.06;95473.75;5036946;28;20254;-86
2021/08/12 04:30:11;;;;;;;5.53;4.25;;;17.70;72.00;;;17.82;56.89;95479.00;5020490;28;20230;-87
2021/08/12 04:32:38;;;;;;;5.50;4.90;;;17.80;72.20;;;17.89;56.58;95479.72;5011506;28;20750;-87
2021/08/12 04:35:07;;;;;;;6.03;4.60;;;17.80;72.20;;;17.97;57.25;95473.31;5025400;28;20224;-86
2021/08/12 04:37:44;;;;;;;6.97;4.38;;;17.90;72.50;;;18.03;57.06;95477.72;5019082;28;20751;-87
2021/08/12 04:40:15;;;;;;;6.57;4.57;;;17.90;72.90;;;18.11;56.79;95484.56;5023174;28;20215;-87
2021/08/12 04:42:44;;;;;;;7.15;4.22;;;18.00;72.70;;;18.18;57.21;95485.28;5031841;28;20205;-87
2021/08/12 04:45:12;;;;;;;5.50;4.15;;;18.00;72.60;;;18.20;56.66;95479.72;4998977;28;20271;-87
2021/08/12 04:47:40;;;;;;;5.03;4.35;;;18.10;72.50;;;18.27;57.36;95480.44;5015389;28;20196;-86
2021/08/12 04:50:09;;;;;;;6.22;4.72;;;18.10;72.50;;;18.30;57.11;95480.00;5015179;28;20213;-87
2021/08/12 04:52:41;;;;;;;5.68;4.15;;;18.20;72.70;;;18.31;57.31;95476.31;4999188;28;20207;-87
2021/08/12 04:55:10;;;;;;;6.22;4.13;;;18.20;72.60;;;18.40;56.93;95484.78;5019123;28;20255;-86
2021/08/12 04:57:37;;;;;;;5.50;3.80;;;18.20;72.80;;;18.39;56.99;95481.31;5018208;28;20223;-87
2021/08/12 05:00:06;;;;;;;5.28;4.05;;;18.30;72.70;;;18.49;57.37;95487.91;5018512;28;20224;-87
2021/08/12 05:02:33;;;;;;;6.07;4.43;;;18.30;72.80;;;18.50;56.88;95473.59;5018484;28;20196;-87
2021/08/12 05:05:01;;;;;;;5.50;4.15;;;18.30;72.70;;;18.59;57.00;95482.88;5034635;28;20694;-86
2021/08/12 05:07:29;;;;;;;8.27;4.50;;;18.50;72.80;;;18.66;56.94;95488.06;4998346;28;20291;-87
2021/08/12 05:09:58;;;;;;;6.18;4.65;;;18.60;72.90;;;18.73;56.62;95494.06;4982352;28;20244;-86
2021/08/12 05:12:25;;;;;;;8.05;4.60;;;18.50;72.80;;;18.79;57.15;95484.41;5014548;28;20601;-87
2021/08/12 05:14:52;;;;;;;5.85;4.55;;;18.60;72.80;;;18.86;56.98;95487.75;4998371;28;20220;-86
2021/08/12 05:17:20;;;;;;;5.10;4.15;;;18.60;72.80;;;18.91;56.63;95489.69;5026462;28;20301;-87
2021/08/12 05:19:47;;;;;;;8.27;4.60;;;18.70;72.90;;;18.96;56.76;95489.88;5017950;28;20236;-87
2021/08/12 05:22:19;;;;;;;6.78;4.40;;;18.80;73.00;;;19.00;56.93;95488.34;5034025;28;20203;-86
2021/08/12 05:24:48;;;;;;;6.63;4.43;;;18.80;73.20;;;19.03;56.89;95487.91;5029953;28;20765;-86
2021/08/12 05:27:17;;;;;;;5.90;4.35;;;18.90;73.00;;;19.10;56.85;95487.78;5015524;28;20189;-86
2021/08/12 05:29:46;;;;;;;7.38;5.07;;;18.90;73.00;;;19.17;56.98;95489.28;5014635;28;20216;-86
2021/08/12 05:32:14;;;;;;;6.57;4.85;;;18.90;73.00;;;19.23;57.34;95492.88;5003189;28;20185;-86
2021/08/12 05:34:42;;;;;;;8.88;5.28;;;19.00;73.00;;;19.32;56.71;95495.97;5023412;28;20216;-86
2021/08/12 05:37:09;;;;;;;5.50;4.82;;;19.00;73.00;;;19.41;57.20;95491.94;5007739;28;20255;-86
2021/08/12 05:39:37;;;;;;;7.22;5.03;;;19.10;73.10;;;19.51;57.30;95496.66;5006421;28;20290;-86
2021/08/12 05:42:05;;;;;;;6.88;5.00;;;19.20;73.00;;;19.58;56.61;95499.19;5002218;28;20300;-87
2021/08/12 05:44:32;;;;;;;8.55;5.57;;;19.20;73.00;;;19.64;57.09;95493.75;4996184;28;20295;-86
2021/08/12 05:46:59;;;;;;;6.53;4.85;;;19.40;73.00;;;19.70;56.45;95501.84;5013836;28;20243;-86
2021/08/12 05:49:26;;;;;;;6.50;5.28;;;19.40;73.80;;;19.66;56.95;95497.00;5043801;28;20200;-86
2021/08/12 05:51:54;;;;;;;6.25;5.13;;;19.40;72.80;;;19.73;56.70;95494.19;5016459;28;20218;-85
2021/08/12 05:54:22;;;;;;;8.40;5.47;;;19.50;72.70;;;19.78;56.90;95502.28;5033110;28;20226;-87
2021/08/12 05:56:49;;;;;;;7.28;5.07;;;19.50;72.70;;;19.83;56.58;95504.22;5033364;28;20266;-86
2021/08/12 05:59:16;;;;;;;6.30;4.45;;;19.60;73.00;;;19.89;57.04;95515.84;5016509;28;20208;-86
2021/08/12 06:01:43;;;;;;;8.30;5.20;;;19.60;73.10;;;19.93;56.27;95507.16;5031975;28;20216;-83
2021/08/12 06:04:11;;;;;;;5.75;4.70;;;19.60;73.00;;;20.02;56.94;95512.91;5029674;28;20204;-82
2021/08/12 06:06:39;;;;;;;5.25;4.75;;;19.70;73.10;;;20.12;56.71;95509.63;4994506;28;20247;-83
2021/08/12 06:09:08;;;;;;;7.45;4.60;;;19.70;73.20;;;20.21;57.02;95510.84;4995231;28;20275;-83
2021/08/12 06:11:35;;;;;;;6.60;4.97;;;19.90;73.40;;;20.29;56.53;95505.13;4996053;28;20275;-83
2021/08/12 06:14:03;;;;;;;7.60;5.63;;;19.90;73.20;;;20.38;56.53;95508.22;4995830;28;20232;-84
2021/08/12 06:16:30;;;;;;;6.95;4.95;;;20.00;73.10;;;20.46;56.47;95509.72;5012088;28;20215;-83
2021/08/12 06:18:57;;;;;;;7.22;4.72;;;20.00;73.10;;;20.54;56.36;95509.28;4988459;28;20196;-83
2021/08/12 06:21:25;;;;;;;7.70;4.78;;;20.10;73.10;;;20.62;56.32;95500.91;5013834;28;20681;-83
2021/08/12 06:23:53;;;;;;;9.85;5.20;;;20.20;73.10;;;20.68;56.44;95509.81;5031131;28;20207;-83
2021/08/12 06:26:20;;;;;;;6.30;5.00;;;20.20;72.80;;;20.74;56.42;95503.56;5018605;28;20274;-83
2021/08/12 06:28:49;;;;;;;6.07;4.68;;;20.40;72.90;;;20.86;56.04;95511.47;4995585;28;20305;-82
2021/08/12 06:31:17;;;;;;;6.45;4.63;;;20.40;72.60;;;20.94;56.33;95510.25;4995207;28;20221;-83
2021/08/12 06:33:46;;;;;;;6.13;5.15;;;20.50;72.70;;;21.04;56.50;95509.63;4979968;28;20204;-82
2021/08/12 06:36:13;;;;;;;6.03;5.03;;;20.60;72.90;;;21.11;56.00;95507.59;4979558;28;20232;-83
2021/08/12 06:38:45;;;;;;;7.03;4.78;;;20.60;72.80;;;21.25;56.04;95513.38;4981395;28;20229;-83
2021/08/12 06:41:13;;;;;;;5.88;4.20;;;20.80;72.40;;;21.35;55.48;95510.88;5018948;28;20220;-82
2021/08/12 06:43:44;;;;;;;5.85;4.60;;;20.80;72.10;;;21.46;55.55;95517.16;5030629;28;20223;-83
2021/08/12 06:46:12;;;;;;;4.95;4.10;;;20.90;72.20;;;21.53;55.21;95511.66;5030829;28;20259;-83
2021/08/12 06:48:42;;;;;;;7.28;3.95;;;21.00;71.80;;;21.63;54.89;95511.81;5031282;28;20690;-83
2021/08/12 06:51:28;;;;;;;4.82;4.25;;;21.10;71.80;;;21.73;55.18;95513.81;5011915;28;20221;-83
2021/08/12 06:53:57;;;;;;;4.55;3.97;;;21.30;71.70;;;21.81;54.63;95509.91;5011780;28;20224;-82
2021/08/12 06:56:25;;;;;;;6.93;4.30;;;21.30;71.60;;;21.90;54.96;95516.44;4994478;28;20224;-82
2021/08/12 06:58:52;;;;;;;4.82;4.32;;;21.40;71.60;;;21.97;54.66;95508.22;4979242;28;20228;-83
2021/08/12 07:01:19;;;;;;;6.43;4.05;;;21.40;71.70;;;22.10;54.87;95523.06;5011429;28;20591;-83
2021/08/12 07:03:47;;;;;;;5.47;4.43;;;21.60;71.90;;;22.17;54.94;95521.81;5033368;28;20220;-83
2021/08/12 07:06:14;;;;;;;5.70;4.20;;;21.60;71.70;;;22.27;54.84;95526.47;4979006;28;20247;-83
2021/08/12 07:08:43;;;;;;;4.90;4.40;;;21.70;71.60;;;22.36;54.40;95527.63;4995478;28;20638;-82
2021/08/12 07:11:10;;;;;;;5.13;4.05;;;21.80;71.40;;;22.46;53.94;95529.63;4979334;28;20591;-83
2021/08/12 07:13:38;;;;;;;4.85;4.32;;;21.90;71.30;;;22.50;53.99;95530.75;5011557;28;20201;-83
2021/08/12 07:16:06;;;;;;;5.50;4.40;;;22.00;71.10;;;22.63;54.01;95542.09;4994967;28;20244;-83
2021/08/12 07:18:34;;;;;;;4.75;4.25;;;22.10;71.10;;;22.69;53.98;95535.72;4994993;28;20337;-84
2021/08/12 07:21:02;;;;;;;5.43;3.95;;;22.10;70.90;;;22.77;53.71;95531.81;4979202;28;20214;-83
2021/08/12 07:23:31;;;;;;;5.00;4.32;;;22.20;70.90;;;22.86;53.70;95533.75;4995675;28;20199;-82
2021/08/12 07:26:00;;;;;;;4.82;4.32;;;22.30;70.80;;;22.95;53.24;95534.09;4997246;28;20307;-83
2021/08/12 07:28:27;;;;;;;5.38;3.90;;;22.40;70.70;;;23.05;53.30;95537.94;4994653;28;20300;-82
2021/08/12 07:30:54;;;;;;;6.20;4.50;;;22.40;70.40;;;23.13;53.16;95537.44;5012614;28;20321;-83
2021/08/12 07:33:22;;;;;;;4.97;4.03;;;22.50;70.60;;;23.21;53.22;95533.53;5016291;28;20221;-83
2021/08/12 07:35:49;;;;;;;4.63;3.80;;;22.60;70.60;;;23.32;52.80;95533.31;5013831;28;20239;-82
2021/08/12 07:38:17;;;;;;;5.35;4.00;;;22.70;70.40;;;23.42;52.99;95529.91;5014401;28;20245;-83
2021/08/12 07:40:44;;;;;;;3.97;3.45;;;22.70;70.20;;;23.54;52.50;95534.28;5031141;28;20489;-85
2021/08/12 07:43:11;;;;;;;4.68;4.18;;;22.90;70.10;;;23.56;52.71;95524.91;5004799;28;20193;-83
2021/08/12 07:45:38;;;;;;;4.68;3.90;;;22.90;70.10;;;23.70;52.32;95540.53;5019416;28;20213;-83
2021/08/12 07:48:06;;;;;;;6.20;3.72;;;23.00;69.80;;;23.78;52.15;95532.78;5020875;28;20192;-83
2021/08/12 07:50:33;;;;;;;5.78;3.72;;;23.10;69.60;;;23.85;51.97;95532.53;5021168;28;20778;-83
2021/08/12 07:53:00;;;;;;;5.50;4.00;;;23.20;69.50;;;23.93;51.63;95528.59;5019448;28;20227;-84
2021/08/12 07:55:31;;;;;;;5.38;3.90;;;23.30;70.50;;;24.04;51.97;95540.19;5021990;28;20221;-83
2021/08/12 07:57:58;;;;;;;4.10;3.50;;;23.30;69.40;;;24.09;51.51;95532.94;5002956;28;20261;-81
2021/08/12 08:00:26;;;;;;;5.80;4.13;;;23.40;69.40;;;24.21;51.33;95537.28;5020973;28;20754;-84
2021/08/12 08:02:54;;;;;;;6.03;3.60;;;23.50;69.10;;;24.29;50.84;95536.75;5019411;28;20223;-83
2021/08/12 08:05:24;;;;;;;6.32;3.88;;;23.60;69.00;;;24.38;51.07;95529.81;5002890;28;20707;-83
2021/08/12 08:07:54;;;;;;;4.53;3.45;;;23.70;68.80;;;24.47;51.02;95532.78;5023699;28;20303;-83
2021/08/12 08:10:25;;;;;;;5.43;3.95;;;23.80;68.90;;;24.59;50.92;95532.56;5013964;28;20237;-83
2021/08/12 08:12:52;;;;;;;5.03;3.75;;;23.80;68.60;;;24.68;50.70;95516.78;5037836;28;20219;-83
2021/08/12 08:15:22;;;;;;;3.60;3.28;;;23.90;68.60;;;24.80;50.50;95521.88;5021308;28;20216;-84
2021/08/12 08:18:01;;;;;;;5.13;3.70;;;24.00;68.60;;;24.88;50.73;95522.16;5006184;28;20212;-83
2021/08/12 08:20:29;;;;;;;5.25;3.63;;;24.10;68.40;;;24.97;49.86;95521.63;5021852;28;20303;-83
2021/08/12 08:23:06;;;;;;;4.22;3.50;;;24.20;68.00;;;25.02;50.02;95519.72;5023068;28;20196;-81
2021/08/12 08:25:33;;;;;;;5.38;3.95;;;24.30;67.50;;;25.15;50.02;95528.34;5013602;28;20205;-84
2021/08/12 08:28:03;;;;;;;4.75;3.70;;;24.40;68.00;;;25.23;49.74;95527.78;5020720;28;20239;-83
2021/08/12 08:30:33;;;;;;;4.10;3.70;;;24.50;67.80;;;25.32;49.72;95528.84;5009758;28;20235;-84
2021/08/12 08:33:02;;;;;;;4.13;3.67;;;24.60;67.30;;;25.41;49.05;95518.38;5031669;28;20192;-83
2021/08/12 08:35:29;;;;;;;5.30;3.85;;;24.60;67.50;;;25.49;49.32;95523.22;5031282;28;20227;-84
2021/08/12 08:37:59;;;;;;;5.80;3.70;;;24.70;67.30;;;25.59;49.33;95530.44;5031795;28;20230;-84
2021/08/12 08:40:28;;;;;;;5.32;4.00;;;24.80;67.20;;;25.68;49.11;95533.38;5015651;28;20584;-84
2021/08/12 08:42:55;;;;;;;4.65;3.85;;;24.90;67.30;;;25.75;48.87;95525.84;5016743;28;20282;-83
2021/08/12 08:45:26;;;;;;;4.80;4.05;;;25.00;67.50;;;25.84;48.81;95529.56;5032513;28;20480;-84
2021/08/12 08:47:56;;;;;;;6.03;4.00;;;25.10;67.40;;;25.93;48.73;95526.31;5033747;28;20685;-84
2021/08/12 08:50:31;;;;;;;4.20;3.70;;;25.10;67.40;;;26.01;48.71;95531.94;5034249;28;20270;-84
2021/08/12 08:53:00;;;;;;;6.18;3.78;;;25.20;67.20;;;26.11;48.28;95527.59;5033776;28;20296;-84
2021/08/12 08:55:28;;;;;;;4.97;4.20;;;25.30;67.10;;;26.18;48.66;95531.63;5017395;28;20214;-84
2021/08/12 08:57:58;;;;;;;5.60;4.10;;;25.40;66.90;;;26.27;47.93;95528.34;5031698;28;20243;-83
2021/08/12 09:00:27;;;;;;;4.68;4.20;;;25.50;66.60;;;26.32;48.22;95523.75;5023658;28;20226;-84
2021/08/12 09:02:55;;;;;;;5.15;4.28;;;25.60;66.40;;;26.43;47.34;95526.41;5009137;28;20199;-84
2021/08/12 09:05:22;;;;;;;5.28;3.95;;;25.60;66.00;;;26.50;47.43;95529.56;5023883;28;20218;-84
2021/08/12 09:07:50;;;;;;;6.85;4.43;;;25.70;65.70;;;26.55;47.06;95517.97;5011584;28;20205;-84
2021/08/12 09:10:20;;;;;;;5.05;4.20;;;25.80;65.80;;;26.62;47.37;95516.59;5003557;28;20224;-84
2021/08/12 09:12:48;;;;;;;5.90;4.05;;;25.80;66.00;;;26.70;47.70;95517.88;5000142;28;20201;-84
2021/08/12 09:15:20;;;;;;;5.32;4.35;;;25.90;66.00;;;26.78;47.02;95513.81;5015161;28;20217;-83
2021/08/12 09:17:57;;;;;;;5.15;3.92;;;26.00;65.90;;;26.86;47.01;95512.41;5014128;28;20604;-85
2021/08/12 09:20:26;;;;;;;6.22;4.00;;;26.00;65.30;;;26.95;46.93;95510.72;5006931;28;20221;-84
2021/08/12 09:23:00;;;;;;;5.35;4.35;;;26.10;65.40;;;27.05;46.51;95509.81;5020214;28;20259;-84
2021/08/12 09:25:51;;;;;;;5.22;4.13;;;26.20;65.30;;;27.12;46.44;95507.63;5033151;28;20204;-84
2021/08/12 09:28:31;;;;;;;5.03;4.00;;;26.30;65.20;;;27.23;46.73;95501.03;5031627;28;20189;-83
2021/08/12 09:31:01;;;;;;;4.28;3.72;;;26.40;65.20;;;27.32;46.12;95504.72;5010299;28;20213;-84
2021/08/12 09:33:45;;;;;;;4.80;4.00;;;26.50;65.10;;;27.42;45.88;95511.16;5012865;28;20193;-84
2021/08/12 09:36:36;;;;;;;6.30;3.72;;;26.60;64.80;;;27.48;46.16;95505.41;5004330;28;20237;-84
2021/08/12 09:39:20;;;;;;;4.50;4.07;;;26.70;64.70;;;27.55;45.73;95510.47;4995553;28;20266;-83
2021/08/12 09:41:54;;;;;;;7.50;4.05;;;26.70;64.60;;;27.63;45.32;95509.81;4995949;28;20250;-84
2021/08/12 09:44:50;;;;;;;4.95;4.20;;;26.80;64.20;;;27.69;45.65;95507.09;5012659;28;20195;-84
2021/08/12 09:47:23;;;;;;;4.88;4.22;;;26.90;64.70;;;27.81;45.44;95507.50;5029019;28;20219;-84
2021/08/12 09:49:56;;;;;;;7.55;4.20;;;27.00;64.20;;;27.91;44.96;95501.19;5013048;28;20249;-84
2021/08/12 09:52:37;;;;;;;5.28;3.95;;;27.10;63.80;;;28.01;44.78;95506.44;5001568;28;20256;-84
2021/08/12 09:55:17;;;;;;;4.22;3.83;;;27.20;63.80;;;28.10;44.73;95504.75;5022156;28;20629;-84
2021/08/12 09:58:05;;;;;;;6.90;4.10;;;27.20;63.30;;;28.18;44.45;95505.19;5023312;28;20296;-84
2021/08/12 10:00:38;;;;;;;4.20;3.80;;;27.30;63.20;;;28.32;44.27;95497.19;5020579;28;20226;-85
2021/08/12 10:03:32;;;;;;;4.30;3.80;;;27.40;63.50;;;28.44;44.25;95497.53;5011783;28;20258;-84
2021/08/12 10:06:03;;;;;;;3.95;3.53;;;27.50;63.50;;;28.60;44.46;95504.34;5026786;28;20227;-84
2021/08/12 10:08:40;;;;;;;4.75;3.75;;;27.60;63.50;;;28.77;44.36;95505.72;5004445;28;20291;-84
2021/08/12 10:11:25;;;;;;;5.22;3.92;;;27.80;63.40;;;28.91;43.65;95498.47;5003073;28;20220;-84
2021/08/12 10:14:00;;;;;;;5.93;4.25;;;27.90;62.80;;;29.05;43.85;95500.44;5004900;28;20225;-85
2021/08/12 10:16:30;;;;;;;5.30;4.32;;;28.00;62.90;;;29.13;42.94;95493.56;5003896;28;20296;-84
2021/08/12 10:19:00;;;;;;;8.60;4.38;;;28.10;62.70;;;29.16;43.52;95499.19;5005531;28;20283;-85
2021/08/12 10:21:27;;;;;;;5.13;3.95;;;28.20;62.40;;;29.22;42.89;95497.16;5008879;28;20592;-85
2021/08/12 10:23:58;;;;;;;5.07;4.25;;;28.30;62.40;;;29.29;42.47;95497.59;5015649;28;20214;-85
2021/08/12 10:26:32;;;;;;;4.25;3.80;;;28.40;62.10;;;29.38;43.20;95493.16;5030766;28;20651;-84
2021/08/12 10:29:12;;;;;;;4.22;3.80;;;28.50;62.30;;;29.47;43.30;95489.75;5048552;28;20198;-86
2021/08/12 10:31:45;;;;;;;5.07;3.90;;;28.60;62.30;;;29.51;42.81;95496.16;5014855;28;20226;-85
2021/08/12 10:34:13;;;;;;;5.57;4.25;;;28.60;61.80;;;29.52;42.73;95492.34;5013365;28;20668;-86